createdAt,value
2023-01-17T00:00:57.024Z,0.45
2023-01-17T00:04:00.975Z,1.13
2023-01-17T00:07:05.047Z,0.55
2023-01-17T00:09:53.311Z,0.70
2023-01-17T00:12:39.370Z,0.45
2023-01-17T00:15:25.957Z,0.70
2023-01-17T00:18:11.672Z,0.47
2023-01-17T00:21:15.797Z,0.50
2023-01-17T00:24:19.510Z,1.75
2023-01-17T00:27:13.846Z,0.70
2023-01-17T00:29:59.506Z,0.50
2023-01-17T00:32:44.709Z,0.65
2023-01-17T00:35:32.116Z,0.98
2023-01-17T00:38:20.223Z,0.47
2023-01-17T00:41:13.747Z,0.50
2023-01-17T00:44:18.965Z,0.73
2023-01-17T00:47:24.373Z,3.22
2023-01-17T00:50:29.160Z,0.50
2023-01-17T00:53:32.873Z,1.20
2023-01-17T00:56:36.665Z,0.60
2023-01-17T00:59:40.643Z,1.08
2023-01-17T01:02:45.739Z,0.40
2023-01-17T01:05:49.486Z,0.65
2023-01-17T01:08:53.486Z,0.70
2023-01-17T01:11:57.251Z,0.40
2023-01-17T01:15:01.236Z,0.68
2023-01-17T01:18:05.218Z,0.45
2023-01-17T01:21:09.055Z,2.08
2023-01-17T01:24:13.165Z,0.40
2023-01-17T01:27:17.996Z,0.52
2023-01-17T01:30:22.871Z,1.02
2023-01-17T01:33:19.068Z,4.05
2023-01-17T01:36:08.072Z,0.73
2023-01-17T01:38:54.631Z,0.50
2023-01-17T01:41:40.035Z,1.20
2023-01-17T01:44:49.779Z,0.50
2023-01-17T01:47:40.764Z,0.40
2023-01-17T01:50:28.031Z,7.18
2023-01-17T01:53:13.677Z,0.52
2023-01-17T01:55:59.507Z,1.13
2023-01-17T01:58:49.005Z,0.65
2023-01-17T02:01:34.631Z,0.65
2023-01-17T02:04:20.753Z,2.15
2023-01-17T02:07:14.680Z,0.68
2023-01-17T02:10:01.059Z,0.65
2023-01-17T02:12:47.199Z,0.50
2023-01-17T02:16:18.120Z,0.50
2023-01-17T02:19:15.842Z,0.50
2023-01-17T02:22:40.293Z,0.43
2023-01-17T02:25:50.744Z,0.73
2023-01-17T02:29:13.409Z,0.52
2023-01-17T02:32:07.404Z,0.57
2023-01-17T02:35:05.653Z,0.40
2023-01-17T02:40:52.684Z,0.35
2023-01-17T02:43:39.592Z,1.77
2023-01-17T02:46:26.938Z,0.52
2023-01-17T02:49:12.645Z,0.88
2023-01-17T02:52:24.049Z,0.70
2023-01-17T02:55:36.884Z,0.45
2023-01-17T02:58:41.151Z,0.70
2023-01-17T03:01:46.373Z,0.50
2023-01-17T03:04:41.052Z,0.50
2023-01-17T03:07:28.818Z,0.73
2023-01-17T03:10:16.886Z,0.63
2023-01-17T03:13:03.254Z,0.98
2023-01-17T03:15:49.611Z,0.50
2023-01-17T03:18:35.238Z,0.55
2023-01-17T03:21:21.582Z,0.70
2023-01-17T03:24:07.457Z,0.55
2023-01-17T03:26:52.904Z,0.88
2023-01-17T03:29:38.462Z,2.17
2023-01-17T03:32:23.806Z,0.57
2023-01-17T03:35:09.491Z,0.70
2023-01-17T03:37:55.242Z,0.50
2023-01-17T03:40:41.660Z,0.63
2023-01-17T03:43:26.985Z,0.50
2023-01-17T03:46:27.477Z,0.70
2023-01-17T03:49:13.086Z,0.40
2023-01-17T03:51:59.099Z,0.50
2023-01-17T03:54:44.363Z,0.55
2023-01-17T03:57:29.772Z,0.50
2023-01-17T04:00:15.328Z,4.57
2023-01-17T04:03:00.947Z,0.60
2023-01-17T04:05:46.292Z,0.70
2023-01-17T04:08:31.777Z,0.50
2023-01-17T04:11:17.161Z,0.50
2023-01-17T04:14:02.419Z,1.52
2023-01-17T04:16:48.078Z,5.57
2023-01-17T04:19:36.435Z,0.50
2023-01-17T04:22:21.579Z,0.60
2023-01-17T04:25:07.394Z,0.50
2023-01-17T04:27:53.848Z,0.75
2023-01-17T04:30:39.552Z,0.32
2023-01-17T04:33:25.233Z,0.45
2023-01-17T04:36:11.011Z,0.50
2023-01-17T04:38:56.353Z,0.73
2023-01-17T04:41:41.704Z,0.50
2023-01-17T04:44:27.176Z,0.60
2023-01-17T04:47:12.707Z,0.50
2023-01-17T04:49:58.052Z,0.82
2023-01-17T04:52:43.607Z,2.00
2023-01-17T04:55:28.938Z,1.65
2023-01-17T04:58:14.326Z,1.05
2023-01-17T05:01:07.913Z,0.73
2023-01-17T05:03:53.710Z,0.50
2023-01-17T05:06:38.952Z,0.73
2023-01-17T05:09:24.474Z,0.77
2023-01-17T05:12:10.174Z,0.60
2023-01-17T05:14:55.390Z,0.47
2023-01-17T05:17:40.767Z,0.63
2023-01-17T05:20:26.720Z,0.90
2023-01-17T05:23:12.488Z,0.60
2023-01-17T05:25:57.814Z,0.50
2023-01-17T05:28:43.228Z,0.70
2023-01-17T05:31:28.630Z,0.50
2023-01-17T05:34:13.906Z,0.50
2023-01-17T05:36:59.492Z,0.70
2023-01-17T05:39:44.977Z,21.17
2023-01-17T05:42:30.370Z,0.65
2023-01-17T05:45:19.734Z,0.73
2023-01-17T05:48:06.722Z,1.00
2023-01-17T05:50:52.279Z,0.60
2023-01-17T05:53:37.941Z,0.82
2023-01-17T05:56:23.365Z,0.70
2023-01-17T05:59:08.820Z,1.13
2023-01-17T06:01:54.355Z,1.00
2023-01-17T06:04:39.751Z,2.60
2023-01-17T06:07:24.950Z,0.60
2023-01-17T06:10:10.946Z,1.05
2023-01-17T06:13:05.549Z,0.77
2023-01-17T06:15:51.390Z,0.40
2023-01-17T06:18:37.137Z,0.98
2023-01-17T06:21:22.373Z,0.98
2023-01-17T06:24:07.762Z,0.65
2023-01-17T06:26:53.190Z,1.20
2023-01-17T06:29:38.473Z,0.57
2023-01-17T06:32:23.937Z,0.80
2023-01-17T06:35:09.496Z,0.80
2023-01-17T06:37:58.157Z,11.70
2023-01-17T06:40:43.960Z,1.05
2023-01-17T06:43:32.641Z,0.93
2023-01-17T06:46:18.147Z,0.65
2023-01-17T06:49:04.042Z,0.80
2023-01-17T06:51:49.229Z,1.45
2023-01-17T06:54:34.653Z,1.00
2023-01-17T06:57:19.764Z,0.85
2023-01-17T07:00:07.222Z,0.60
2023-01-17T07:05:38.292Z,8.68
2023-01-17T07:08:23.681Z,0.60
2023-01-17T07:11:10.604Z,0.75
2023-01-17T07:13:55.878Z,0.70
2023-01-17T07:16:46.012Z,0.40
2023-01-17T07:19:31.590Z,0.80
2023-01-17T07:22:16.956Z,0.70
2023-01-17T07:25:02.355Z,1.02
2023-01-17T07:27:47.959Z,1.40
2023-01-17T07:30:35.136Z,0.90
2023-01-17T07:33:20.756Z,1.10
2023-01-17T07:36:07.858Z,1.00
2023-01-17T07:38:53.444Z,0.60
2023-01-17T07:41:41.445Z,0.60
2023-01-17T07:44:26.830Z,0.73
2023-01-17T07:47:12.319Z,1.33
2023-01-17T07:49:57.572Z,0.85
2023-01-17T07:52:43.037Z,0.43
2023-01-17T07:55:28.591Z,5.05
2023-01-17T07:58:15.040Z,2.17
2023-01-17T08:01:22.698Z,0.73
2023-01-17T08:04:09.411Z,1.25
2023-01-17T08:06:55.223Z,0.65
2023-01-17T08:09:41.824Z,1.08
2023-01-17T08:12:29.452Z,0.50
2023-01-17T08:15:16.339Z,0.98
2023-01-17T08:18:01.669Z,0.47
2023-01-17T08:20:47.116Z,1.15
2023-01-17T08:23:32.530Z,3.03
2023-01-17T08:26:22.714Z,1.58
2023-01-17T08:29:09.297Z,1.00
2023-01-17T08:31:54.808Z,2.00
2023-01-17T08:34:40.696Z,1.02
2023-01-17T08:37:26.073Z,1.58
2023-01-17T08:40:12.116Z,1.10
2023-01-17T08:42:59.433Z,1.83
2023-01-17T08:45:47.112Z,3.13
2023-01-17T08:48:32.249Z,0.73
2023-01-17T08:51:17.589Z,0.70
2023-01-17T08:54:05.186Z,2.03
2023-01-17T08:56:52.846Z,0.80
2023-01-17T08:59:38.091Z,1.20
2023-01-17T09:03:53.138Z,0.65
2023-01-17T09:18:38.369Z,1.25
2023-01-17T09:21:24.586Z,1.70
2023-01-17T09:24:10.026Z,1.40
2023-01-17T09:26:55.861Z,2.42
2023-01-17T09:29:41.180Z,0.93
2023-01-17T09:32:26.483Z,1.48
2023-01-17T09:35:13.620Z,1.55
2023-01-17T09:37:59.126Z,8.95
2023-01-17T09:40:56.509Z,1.38
2023-01-17T09:44:09.443Z,2.25
2023-01-17T09:47:00.091Z,0.98
2023-01-17T09:49:47.129Z,0.70
2023-01-17T09:52:33.496Z,1.20
2023-01-17T09:55:20.229Z,0.93
2023-01-17T09:58:17.906Z,0.57
2023-01-17T10:01:19.176Z,0.47
2023-01-17T10:04:38.318Z,0.70
2023-01-17T10:07:49.297Z,1.08
2023-01-17T10:10:45.630Z,1.58
2023-01-17T10:14:03.959Z,0.63
2023-01-17T10:17:04.824Z,1.17
2023-01-17T10:20:34.175Z,0.63
2023-01-17T10:23:51.928Z,2.10
2023-01-17T10:26:38.356Z,1.98
2023-01-17T10:29:28.515Z,0.77
2023-01-17T10:32:14.887Z,1.05
2023-01-17T10:35:11.524Z,3.05
2023-01-17T10:38:03.718Z,2.30
2023-01-17T10:40:55.335Z,7.07
2023-01-17T10:43:56.001Z,0.85
2023-01-17T10:46:53.658Z,3.22
2023-01-17T10:49:45.118Z,2.83
2023-01-17T10:52:33.328Z,4.72
2023-01-17T10:55:27.249Z,0.70
2023-01-17T10:58:31.783Z,1.75
2023-01-17T11:01:20.263Z,1.15
2023-01-17T11:04:33.040Z,5.68
2023-01-17T11:07:26.672Z,1.55
2023-01-17T11:10:47.273Z,0.98
2023-01-17T11:13:36.202Z,2.00
2023-01-17T11:16:26.727Z,0.75
2023-01-17T11:19:36.143Z,1.35
2023-01-17T11:25:07.235Z,1.85
2023-01-17T11:28:26.319Z,0.60
2023-01-17T11:34:18.448Z,2.95
2023-01-17T11:37:19.277Z,0.80
2023-01-17T11:40:18.840Z,0.50
2023-01-17T11:43:18.757Z,1.08
2023-01-17T11:46:20.520Z,0.80
2023-01-17T11:49:21.933Z,0.70
2023-01-17T11:52:17.251Z,1.65
2023-01-17T11:55:02.720Z,1.20
2023-01-17T11:57:50.472Z,1.02
2023-01-17T12:00:46.913Z,0.70
2023-01-17T12:03:51.486Z,0.52
2023-01-17T12:06:57.671Z,1.13
2023-01-17T12:10:09.988Z,0.93
2023-01-17T12:13:41.307Z,0.52
2023-01-17T12:16:45.455Z,1.65
2023-01-17T12:19:34.346Z,4.95
2023-01-17T12:22:20.021Z,0.60
2023-01-17T12:25:23.669Z,0.52
2023-01-17T12:28:12.163Z,0.77
2023-01-17T12:31:18.191Z,0.68
2023-01-17T12:34:27.083Z,0.52
2023-01-17T12:40:42.820Z,0.50
2023-01-17T12:43:37.383Z,0.70
2023-01-17T12:46:44.145Z,1.55
2023-01-17T12:49:40.696Z,0.85
2023-01-17T12:52:51.243Z,1.38
2023-01-17T12:56:16.676Z,0.93
2023-01-17T12:59:26.933Z,1.67
2023-01-17T13:02:34.533Z,2.75
2023-01-17T13:05:46.724Z,0.60
2023-01-17T13:08:43.835Z,0.70
2023-01-17T13:11:49.922Z,0.77
2023-01-17T13:14:35.922Z,1.20
2023-01-17T13:17:34.991Z,1.92
2023-01-17T13:20:33.122Z,2.28
2023-01-17T13:23:38.010Z,1.20
2023-01-17T13:26:33.793Z,0.80
2023-01-17T13:29:56.211Z,3.53
2023-01-17T13:33:01.618Z,2.10
2023-01-17T13:36:08.322Z,1.40
2023-01-17T13:39:12.711Z,0.93
2023-01-17T13:42:23.093Z,1.08
2023-01-17T13:45:17.627Z,7.13
2023-01-17T13:48:11.990Z,0.85
2023-01-17T13:51:17.015Z,11.88
2023-01-17T13:54:07.492Z,1.48
2023-01-17T13:57:27.323Z,1.45
2023-01-17T14:00:21.544Z,3.60
2023-01-17T14:03:11.644Z,3.08
2023-01-17T14:05:57.624Z,3.70
2023-01-17T14:08:45.487Z,1.70
2023-01-17T14:11:55.154Z,1.63
2023-01-17T14:14:41.019Z,1.58
2023-01-17T14:17:34.203Z,1.58
2023-01-17T14:20:25.862Z,4.15
2023-01-17T14:23:33.042Z,9.63
2023-01-17T14:26:28.945Z,4.82
2023-01-17T14:29:42.692Z,2.25
2023-01-17T14:32:32.611Z,2.72
2023-01-17T14:35:23.108Z,2.17
2023-01-17T14:38:31.617Z,13.05
2023-01-17T14:41:23.591Z,9.68
2023-01-17T14:44:14.874Z,3.75
2023-01-17T14:47:00.662Z,22.70
2023-01-17T14:49:46.066Z,14.85
2023-01-17T14:52:31.577Z,13.57
2023-01-17T14:55:20.305Z,17.30
2023-01-17T14:58:06.316Z,18.45
2023-01-17T15:00:56.483Z,11.45
2023-01-17T15:03:48.974Z,25.42
2023-01-17T15:06:40.738Z,26.38
2023-01-17T15:09:29.930Z,20.15
2023-01-17T15:12:15.387Z,24.00
2023-01-17T15:15:01.316Z,16.83
2023-01-17T15:17:46.962Z,19.40
2023-01-17T15:20:32.332Z,4.10
2023-01-17T15:23:21.308Z,4.07
2023-01-17T15:26:08.279Z,7.88
2023-01-17T15:29:03.953Z,8.40
2023-01-17T15:31:56.169Z,10.80
2023-01-17T15:34:46.875Z,5.20
2023-01-17T15:37:39.830Z,15.80
2023-01-17T15:40:26.667Z,17.90
2023-01-17T15:43:20.113Z,11.00
2023-01-17T15:46:05.754Z,12.80
2023-01-17T15:48:51.926Z,18.77
2023-01-17T15:51:39.032Z,32.35
2023-01-17T15:54:41.664Z,31.73
2023-01-17T15:57:28.561Z,79.15
2023-01-17T16:00:15.856Z,96.90
2023-01-17T16:03:01.389Z,25.58
2023-01-17T16:05:47.663Z,9.18
2023-01-17T16:08:38.613Z,2.42
2023-01-17T16:11:24.387Z,6.82
2023-01-17T16:14:10.303Z,12.02
2023-01-17T16:16:55.724Z,22.88
2023-01-17T16:19:41.787Z,17.85
2023-01-17T16:22:27.294Z,16.23
2023-01-17T16:25:15.120Z,13.60
2023-01-17T16:28:01.178Z,19.27
2023-01-17T16:30:48.488Z,14.77
2023-01-17T16:33:33.833Z,12.23
2023-01-17T16:36:21.238Z,23.15
2023-01-17T16:39:07.442Z,16.98
2023-01-17T16:42:00.988Z,19.50
2023-01-17T16:44:46.202Z,43.42
2023-01-17T16:47:31.550Z,21.70
2023-01-17T16:50:23.198Z,21.50
2023-01-17T16:53:08.705Z,23.55
2023-01-17T16:55:59.669Z,9.50
2023-01-17T16:58:45.452Z,8.80
2023-01-17T17:01:31.050Z,12.70
2023-01-17T17:04:16.303Z,10.73
2023-01-17T17:07:01.734Z,10.82
2023-01-17T17:09:47.623Z,17.25
2023-01-17T17:12:33.291Z,8.07
2023-01-17T17:15:19.115Z,9.60
2023-01-17T17:18:04.630Z,46.92
2023-01-17T17:20:49.943Z,23.88
2023-01-17T17:23:35.303Z,25.30
2023-01-17T17:26:20.620Z,23.70
2023-01-17T17:29:10.555Z,32.72
2023-01-17T17:31:55.763Z,37.25
2023-01-17T17:34:41.294Z,22.00
2023-01-17T17:37:29.087Z,18.08
2023-01-17T17:40:14.874Z,15.13
2023-01-17T17:43:00.429Z,18.45
2023-01-17T17:45:45.756Z,10.70
2023-01-17T17:48:31.143Z,13.80
2023-01-17T17:51:24.050Z,12.45
2023-01-17T17:54:11.646Z,5.68
2023-01-17T17:59:42.777Z,11.70
2023-01-17T18:02:28.199Z,21.27
2023-01-17T18:05:13.595Z,16.98
2023-01-17T18:08:00.758Z,6.38
2023-01-17T18:10:46.492Z,11.48
2023-01-17T18:13:32.598Z,5.47
2023-01-17T18:16:27.779Z,15.93
2023-01-17T18:19:22.336Z,16.75
2023-01-17T18:22:08.142Z,9.77
2023-01-17T18:24:53.700Z,12.90
2023-01-17T18:27:39.771Z,24.45
2023-01-17T18:30:25.442Z,9.85
2023-01-17T18:33:10.873Z,14.38
2023-01-17T18:35:58.760Z,14.93
2023-01-17T18:38:46.955Z,5.68
2023-01-17T18:41:32.309Z,11.55
2023-01-17T18:44:21.838Z,15.10
2023-01-17T18:47:07.649Z,14.43
2023-01-17T18:49:53.713Z,17.33
2023-01-17T18:52:40.789Z,49.95
2023-01-17T18:55:26.067Z,30.83
2023-01-17T18:58:11.448Z,43.22
2023-01-17T19:01:06.634Z,66.32
2023-01-17T19:03:54.671Z,37.63
2023-01-17T19:06:46.608Z,138.00
2023-01-17T19:09:32.247Z,20.88
2023-01-17T19:12:19.038Z,62.35
2023-01-17T19:15:06.931Z,97.57
2023-01-17T19:17:52.722Z,72.47
2023-01-17T19:20:39.104Z,64.30
2023-01-17T19:23:24.421Z,15.57
2023-01-17T19:26:11.223Z,9.73
2023-01-17T19:28:58.893Z,26.63
2023-01-17T19:31:44.775Z,17.10
2023-01-17T19:34:30.637Z,14.77
2023-01-17T19:37:16.242Z,26.45
2023-01-17T19:40:01.739Z,7.60
2023-01-17T19:42:47.640Z,7.57
2023-01-17T19:45:33.048Z,5.13
2023-01-17T19:48:18.209Z,5.60
2023-01-17T19:51:09.721Z,3.88
2023-01-17T19:53:55.310Z,4.80
2023-01-17T19:56:40.597Z,6.85
2023-01-17T19:59:26.014Z,8.68
2023-01-17T20:02:11.639Z,6.63
2023-01-17T20:04:57.044Z,15.45
2023-01-17T20:07:43.720Z,6.72
2023-01-17T20:10:29.693Z,6.20
2023-01-17T20:13:15.493Z,3.90
2023-01-17T20:16:06.272Z,16.77
2023-01-17T20:18:52.203Z,12.18
2023-01-17T20:21:38.098Z,11.45
2023-01-17T20:24:24.183Z,8.93
2023-01-17T20:27:09.527Z,6.00
2023-01-17T20:29:54.856Z,6.30
2023-01-17T20:32:40.242Z,14.07
2023-01-17T20:35:25.936Z,19.15
2023-01-17T20:38:11.941Z,32.83
2023-01-17T20:40:57.267Z,23.77
2023-01-17T20:43:51.205Z,34.20
2023-01-17T20:46:40.636Z,13.27
2023-01-17T20:49:26.286Z,25.95
2023-01-17T20:52:14.567Z,15.75
2023-01-17T20:55:00.460Z,7.00
2023-01-17T20:57:45.858Z,11.52
2023-01-17T21:00:31.391Z,11.70
2023-01-17T21:03:16.611Z,9.98
2023-01-17T21:06:09.836Z,5.95
2023-01-17T21:08:55.418Z,7.03
2023-01-17T21:11:40.846Z,8.43
2023-01-17T21:14:29.616Z,8.98
2023-01-17T21:17:16.481Z,7.72
2023-01-17T21:20:06.666Z,8.82
2023-01-17T21:22:52.303Z,8.27
2023-01-17T21:25:38.583Z,4.78
2023-01-17T21:28:26.229Z,9.00
2023-01-17T21:31:25.017Z,8.52
2023-01-17T21:34:11.652Z,6.85
2023-01-17T21:36:57.444Z,10.93
2023-01-17T21:39:43.062Z,8.68
2023-01-17T21:42:28.540Z,9.32
2023-01-17T21:45:13.959Z,7.05
2023-01-17T21:47:59.454Z,10.10
2023-01-17T21:50:45.363Z,10.95
2023-01-17T21:53:33.082Z,16.10
2023-01-17T21:56:37.255Z,10.15
2023-01-17T21:59:22.604Z,8.20
2023-01-17T22:02:10.496Z,5.20
2023-01-17T22:04:56.318Z,10.13
2023-01-17T22:08:01.457Z,10.95
2023-01-17T22:10:46.998Z,7.72
2023-01-17T22:13:32.711Z,8.68
2023-01-17T22:16:20.537Z,14.60
2023-01-17T22:19:05.842Z,11.15
2023-01-17T22:21:51.362Z,6.78
2023-01-17T22:24:37.796Z,7.40
2023-01-17T22:27:23.090Z,10.38
2023-01-17T22:30:09.234Z,5.70
2023-01-17T22:32:58.372Z,6.35
2023-01-17T22:35:44.108Z,9.98
2023-01-17T22:38:29.947Z,7.85
2023-01-17T22:41:19.943Z,6.47
2023-01-17T22:44:05.545Z,7.13
2023-01-17T22:46:51.129Z,8.30
2023-01-17T22:49:36.416Z,29.98
2023-01-17T22:52:21.795Z,13.85
2023-01-17T22:55:07.402Z,7.07
2023-01-17T22:57:53.055Z,13.90
2023-01-17T23:00:38.322Z,12.63
2023-01-17T23:03:24.378Z,9.23
2023-01-17T23:06:13.925Z,7.20
2023-01-17T23:09:02.643Z,5.32
2023-01-17T23:11:52.946Z,7.15
2023-01-17T23:14:57.125Z,7.35
2023-01-17T23:18:00.831Z,4.00
2023-01-17T23:20:46.357Z,4.03
2023-01-17T23:23:32.162Z,3.28
2023-01-17T23:26:17.806Z,3.70
2023-01-17T23:29:03.456Z,8.48
2023-01-17T23:31:48.983Z,6.13
2023-01-17T23:34:34.421Z,10.40
2023-01-17T23:37:20.014Z,5.10
2023-01-17T23:40:06.171Z,6.18
2023-01-17T23:43:10.128Z,3.85
2023-01-17T23:45:55.513Z,4.90
2023-01-17T23:48:40.821Z,4.25
2023-01-17T23:51:26.047Z,7.75
2023-01-17T23:54:11.291Z,7.68
2023-01-17T23:56:56.671Z,4.30
2023-01-17T23:59:42.071Z,4.93
